Augusta, New Jersey
Current Conditions -  °F | °C
As of 1:53 PM on Sunday 23 Nov 2014 (Local Time) from KFWN Reporting Station
Clear Clear  
Wind Chill: 14°   Ceiling: Unl
Heat Index: 14°   Visibility: 10mi
Dew Point: -4°   Wind: 5mph
Humidity: 29%   Direction: NA
Pressure: 30.1"   Gusts: NA
Location:  41.13°N, 74.73°W
Report Text: KFWN 231853Z AUTO VRB04KT 10SM CLR 14/M04 A3010 RMK AO2 SLP195 T01391039
Loading
Personal Weather Stations






























Interactive Weather Map New forecast layout! Learn more

10-Day Weather Forecast

Advertisements
Track Severe Weather on mobile